Cresud Sa (CRESY) Latest Bloomsberg Price


Mffais Ranking #1925 Overall / #14 Industry
Industry: Real Estate Owners And Developers

Number of Companies: 37 (Ranking #2440 Overall/#6 Industry)
Inflow: $ 8,250 (K) (Ranking #2067 Overall/#7 Industry)
Outflow: $ -21,153 (K)
Mffais Flow: $ -12,902 (K) (Ranking #1925 Overall/#14 Industry)


Receive a FREE weekly executive review of stocks moving into the top 10, taking the top industy spot or moving up within their industry. Sent directly to your Inbox every Saturday. Sign up today and get last week's review immediately sent to you.

We value and respect your privacy. Please read our Terms and Conditions which states our firm commitment to your privacy. Your email address will not be shared with a third party, nor will it be sold or used for purposes other than subscription for the weekly review.

Owner CPOR Shares Action Qty Chg Invested (K) Total Current Value (K)
Serengeti Asset Management Lp 2016-09-30 350,000 Added More 210,000 $ 3,578 $ 5,964
Tricadia Capital Management Llc 2016-09-30 118,000 New Holding 118,000 $ 2,010 $ 2,010
Gam Holding Ag 2016-09-30 184,000 Added More 96,000 $ 1,635 $ 3,135
Dorsey Wright Associates 2016-09-30 27,660 New Holding 27,660 $ 471 $ 471
Guggenheim Capital Llc 2016-09-30 10,374 New Holding 10,374 $ 176 $ 176
683 Capital Management Llc 2016-09-30 1,110,000 Added More 10,000 $ 170 $ 18,914
Advisor Group Inc 2016-09-30 4,781 New Holding 4,781 $ 81 $ 81
Cutler Group Lp 2016-09-30 4,406 Added More 2,906 $ 49 $ 75
Penserra Capital Management Llc 2016-09-30 2,142 New Holding 2,142 $ 36 $ 36
Commonwealth Bank Of Australia 2016-09-30 1,294 New Holding 1,294 $ 22 $ 22
Northern Trust Corp 2016-09-30 654,651 Added More 661 $ 11 $ 11,155
Simplex Trading Llc 2016-09-30 758 Added More 278 $ 4 $ 12
Next Financial Group Inc 2016-09-30 100 New Holding 100 $ 1 $ 1
Old Mutual Customised Solutions Proprietary Ltd 2016-09-30 171,028 No Change 0 $ 0 $ 2,914
Whittier Trust Co Of Nevada Inc 2016-09-30 4,298 No Change 0 $ 0 $ 73
Thrivent Financial For Lutherans 2016-09-30 531 No Change 0 $ 0 $ 9
Advisory Services Network Llc 2016-09-30 5 No Change 0 $ 0 $ 0
Ruane Cunniff Goldfarb Inc 2016-09-30 612,147 No Change 0 $ 0 $ 10,430
Finepoint Capital Lp 2016-09-30 485,711 No Change 0 $ 0 $ 8,276
Ladenburg Thalmann Financial Services Inc 2016-09-30 606 Sold Some -100 $ -1 $ 10
Creative Planning 2016-09-30 0 Sold All -100 $ -1 $ 0
Van Eck Associates Corp 2016-09-30 3,648 Sold Some -261 $ -4 $ 62
Tower Research Capital Llc Trc 2016-09-30 37 Sold Some -277 $ -4 $ 0
Acrospire Investment Management Llc 2016-09-30 1,431 Sold Some -2,300 $ -39 $ 24
Walleye Trading Llc 2016-09-30 0 Sold All -2,700 $ -46 $ 0
Peak6 Investments L P 2016-09-30 14,145 Sold Some -4,015 $ -68 $ 241
Raymond James Associates 2016-09-30 55,041 Sold Some -7,222 $ -123 $ 937
Yorktown Management Research Co Inc 2016-09-30 17,000 Sold Some -10,000 $ -170 $ 289
Deltec Asset Management Llc 2016-09-30 12,000 Sold Some -10,000 $ -170 $ 204
Parkwood Llc 2016-09-30 27,922 Sold Some -14,300 $ -243 $ 475
Horizon Kinetics Llc 2016-09-30 0 Sold All -14,880 $ -253 $ 0
Rock Point Advisors Llc 2016-09-30 0 Sold All -17,584 $ -299 $ 0
Global X Management Co Llc 2016-09-30 114,052 Sold Some -23,551 $ -401 $ 1,943
Bienville Capital Management Llc 2016-09-30 732,167 Sold Some -39,500 $ -673 $ 12,476
Parametric Portfolio Associates Llc 2016-09-30 0 Sold All -123,624 $ -2,106 $ 0
Emerald Acquisition Ltd 2016-09-30 651,527 Sold Some -378,981 $ -6,457 $ 11,102
Senvest Management Llc 2016-09-30 1,800,663 Sold Some -592,000 $ -10,087 $ 30,683